Time;durP1;ratioP1;P1;durP2;ratioP2;P2;SDS_P1;SDS_P2;PMS_P1;PMS_P2;Temp;Humidity;BMP_temperature;BMP_pressure;BME280_temperature;BME280_humidity;BME280_pressure;Samples;Min_cycle;Max_cycle;Signal;HPM_P1;HPM_P2
2021/09/25 00:00:10;;;;;;;6.68;3.70;;;19.30;81.20;;;;;;5032602;28;20022;-77
2021/09/25 00:02:35;;;;;;;7.07;3.78;;;19.30;81.40;;;;;;5032219;28;20030;-77
2021/09/25 00:05:02;;;;;;;8.60;3.70;;;19.30;81.40;;;;;;5032504;28;20041;-77
2021/09/25 00:07:27;;;;;;;7.05;3.92;;;19.30;81.40;;;;;;5031078;28;20443;-76
2021/09/25 00:09:53;;;;;;;6.72;3.78;;;19.30;81.40;;;;;;5031155;28;20120;-77
2021/09/25 00:12:19;;;;;;;6.28;3.65;;;19.30;81.40;;;;;;5030840;28;20026;-77
2021/09/25 00:14:45;;;;;;;6.38;3.45;;;19.30;82.10;;;;;;5031060;28;20115;-77
2021/09/25 00:17:12;;;;;;;6.18;3.83;;;19.30;81.40;;;;;;5030998;28;20394;-76
2021/09/25 00:19:39;;;;;;;6.80;3.60;;;19.30;81.50;;;;;;5031320;28;20071;-76
2021/09/25 00:22:06;;;;;;;6.60;3.67;;;19.30;81.50;;;;;;5031857;28;20033;-76
2021/09/25 00:24:32;;;;;;;6.68;3.50;;;19.30;81.50;;;;;;5031013;28;20445;-77
2021/09/25 00:26:57;;;;;;;7.63;3.85;;;19.30;81.50;;;;;;5032076;28;20021;-76
2021/09/25 00:29:23;;;;;;;6.38;3.50;;;19.30;81.40;;;;;;5032368;28;20021;-77
2021/09/25 00:31:49;;;;;;;7.13;3.53;;;19.30;81.50;;;;;;5030697;28;20394;-76
2021/09/25 00:34:15;;;;;;;7.93;3.75;;;19.30;81.40;;;;;;5031875;28;20029;-76
2021/09/25 00:36:40;;;;;;;8.43;3.65;;;19.30;81.40;;;;;;5030605;28;20022;-76
2021/09/25 00:39:06;;;;;;;6.10;3.65;;;19.30;81.50;;;;;;5030958;28;20071;-76
2021/09/25 00:41:32;;;;;;;5.38;3.33;;;19.30;81.60;;;;;;5030683;28;20074;-76
2021/09/25 00:43:57;;;;;;;5.88;3.30;;;19.30;82.20;;;;;;5031920;28;20107;-76
2021/09/25 00:46:23;;;;;;;8.65;4.07;;;19.30;81.70;;;;;;5030604;28;20069;-76
2021/09/25 00:48:49;;;;;;;6.22;3.70;;;19.30;81.50;;;;;;5030520;28;20080;-77
2021/09/25 00:51:16;;;;;;;5.75;3.50;;;19.30;81.70;;;;;;5031484;28;20021;-76
2021/09/25 00:53:42;;;;;;;6.85;3.70;;;19.30;81.60;;;;;;5030875;28;20091;-76
2021/09/25 00:56:09;;;;;;;6.97;4.00;;;19.20;81.50;;;;;;5030503;28;20052;-76
2021/09/25 00:58:39;;;;;;;6.38;3.83;;;19.30;81.90;;;;;;5030517;28;20029;-76
2021/09/25 01:01:05;;;;;;;6.75;3.40;;;19.30;81.50;;;;;;5030149;28;20044;-75
2021/09/25 01:03:32;;;;;;;6.45;3.60;;;19.20;81.60;;;;;;5031678;28;20471;-76
2021/09/25 01:05:57;;;;;;;7.07;3.50;;;19.20;81.80;;;;;;5031615;28;20038;-76
2021/09/25 01:08:23;;;;;;;7.15;3.35;;;19.30;81.80;;;;;;5031751;28;20026;-76
2021/09/25 01:10:54;;;;;;;5.18;3.33;;;19.30;81.70;;;;;;5030064;28;20021;-76
2021/09/25 01:13:21;;;;;;;6.40;3.75;;;19.30;81.50;;;;;;5031763;28;20032;-77
2021/09/25 01:15:47;;;;;;;9.52;3.22;;;19.30;81.80;;;;;;5030485;28;20034;-76
2021/09/25 01:18:13;;;;;;;6.55;3.72;;;19.30;81.40;;;;;;5030465;28;20491;-76
2021/09/25 01:20:39;;;;;;;7.43;3.70;;;19.20;81.70;;;;;;5029985;28;20483;-76
2021/09/25 01:23:05;;;;;;;7.40;3.22;;;19.20;81.80;;;;;;5030209;28;20026;-76
2021/09/25 01:25:31;;;;;;;7.32;3.45;;;19.20;81.80;;;;;;5031422;28;20033;-75
2021/09/25 01:27:57;;;;;;;6.07;3.50;;;19.30;81.80;;;;;;5031308;28;20108;-76
2021/09/25 01:30:23;;;;;;;7.60;3.60;;;19.30;81.90;;;;;;5031420;28;20107;-75
2021/09/25 01:32:50;;;;;;;5.55;3.10;;;19.30;82.40;;;;;;5030458;28;20103;-76
2021/09/25 01:35:18;;;;;;;5.82;3.42;;;19.20;81.60;;;;;;5030178;28;20030;-76
2021/09/25 01:37:46;;;;;;;7.25;3.38;;;19.30;81.50;;;;;;5031473;28;20575;-76
2021/09/25 01:40:12;;;;;;;5.75;3.53;;;19.20;81.70;;;;;;5030109;28;20029;-76
2021/09/25 01:42:37;;;;;;;8.15;3.42;;;19.30;81.50;;;;;;5029699;28;20026;-76
2021/09/25 01:45:05;;;;;;;7.18;3.47;;;19.20;81.50;;;;;;5030672;28;20025;-76
2021/09/25 01:47:30;;;;;;;6.30;3.22;;;19.20;81.60;;;;;;5031889;28;20104;-75
2021/09/25 01:50:00;;;;;;;6.22;3.70;;;19.20;81.80;;;;;;5030776;28;20461;-77
2021/09/25 01:52:26;;;;;;;6.53;3.58;;;19.20;81.70;;;;;;5032692;28;20026;-78
2021/09/25 01:54:51;;;;;;;5.90;3.13;;;19.20;81.60;;;;;;5034884;28;20033;-75
2021/09/25 01:57:17;;;;;;;6.85;3.50;;;19.20;81.80;;;;;;5031278;28;20032;-76
2021/09/25 01:59:43;;;;;;;6.88;3.63;;;19.20;81.70;;;;;;5029920;28;20079;-77
2021/09/25 02:02:09;;;;;;;5.70;3.28;;;19.20;81.80;;;;;;5029490;28;20375;-76
2021/09/25 02:04:36;;;;;;;7.10;3.40;;;19.20;81.60;;;;;;5029945;28;20021;-77
2021/09/25 02:07:03;;;;;;;7.05;3.20;;;19.20;81.80;;;;;;5031654;28;20176;-76
2021/09/25 02:09:28;;;;;;;6.32;3.42;;;19.30;81.90;;;;;;5034605;28;20068;-76
2021/09/25 02:11:54;;;;;;;8.18;3.63;;;19.20;81.80;;;;;;5034317;28;20038;-77
2021/09/25 02:14:19;;;;;;;6.35;3.45;;;19.20;81.70;;;;;;5035077;28;20109;-76
2021/09/25 02:16:45;;;;;;;8.40;3.83;;;19.20;81.80;;;;;;5033352;28;20034;-77
2021/09/25 02:19:10;;;;;;;5.50;2.75;;;19.20;81.70;;;;;;5033419;28;20021;-76
2021/09/25 02:21:37;;;;;;;6.28;3.45;;;19.20;81.80;;;;;;5032846;28;20033;-78
2021/09/25 02:24:03;;;;;;;6.50;3.10;;;19.20;81.90;;;;;;5033074;28;20501;-76
2021/09/25 02:26:28;;;;;;;5.97;3.25;;;19.20;81.70;;;;;;5033010;28;20025;-77
2021/09/25 02:28:54;;;;;;;5.80;3.30;;;19.20;81.90;;;;;;5033061;28;20022;-76
2021/09/25 02:31:20;;;;;;;7.15;3.60;;;19.20;81.80;;;;;;5032880;28;20026;-75
2021/09/25 02:33:46;;;;;;;7.07;3.60;;;19.20;82.00;;;;;;5034188;28;20033;-76
2021/09/25 02:36:12;;;;;;;6.65;3.25;;;19.20;82.00;;;;;;5032686;28;20029;-76
2021/09/25 02:38:37;;;;;;;5.85;3.20;;;19.20;81.90;;;;;;5034109;28;20034;-77
2021/09/25 02:41:03;;;;;;;6.80;3.33;;;19.20;81.90;;;;;;5032659;28;20032;-76
2021/09/25 02:43:28;;;;;;;6.55;3.10;;;19.20;81.70;;;;;;5032755;28;20099;-76
2021/09/25 02:45:54;;;;;;;6.00;3.38;;;19.20;81.80;;;;;;5033841;28;20025;-76
2021/09/25 02:48:20;;;;;;;8.55;3.40;;;19.20;82.00;;;;;;5033967;28;20434;-76
2021/09/25 02:50:45;;;;;;;8.75;3.30;;;19.20;82.30;;;;;;5033700;28;20025;-76
2021/09/25 02:53:11;;;;;;;6.88;3.13;;;19.20;81.70;;;;;;5032867;28;20033;-75
2021/09/25 02:55:37;;;;;;;6.40;2.97;;;19.20;82.00;;;;;;5029486;28;20123;-76
2021/09/25 02:58:02;;;;;;;6.28;3.10;;;19.20;81.90;;;;;;5033340;28;20060;-77
2021/09/25 03:00:28;;;;;;;11.43;3.40;;;19.20;81.90;;;;;;5033272;28;20433;-77
2021/09/25 03:02:53;;;;;;;5.70;3.22;;;19.20;81.90;;;;;;5033625;28;20033;-77
2021/09/25 03:05:19;;;;;;;7.28;3.20;;;19.20;81.90;;;;;;5032261;28;20037;-76
2021/09/25 03:07:45;;;;;;;5.80;3.17;;;19.20;82.50;;;;;;5180760;22;20048;-75
2021/09/25 03:10:11;;;;;;;8.10;3.50;;;19.20;81.80;;;;;;5067172;28;20146;-75
2021/09/25 03:12:36;;;;;;;6.00;3.25;;;19.20;82.10;;;;;;5071888;28;20744;-75
2021/09/25 03:15:04;;;;;;;6.05;3.28;;;19.20;81.80;;;;;;5072172;28;20039;-75
2021/09/25 03:17:29;;;;;;;7.03;3.10;;;19.20;82.10;;;;;;5087370;28;20026;-75
2021/09/25 03:19:55;;;;;;;7.90;3.33;;;19.20;81.80;;;;;;5092351;28;20028;-75
2021/09/25 03:22:20;;;;;;;5.15;3.00;;;19.20;82.00;;;;;;5092042;28;20024;-75
2021/09/25 03:24:46;;;;;;;5.57;2.85;;;19.20;82.00;;;;;;5092314;28;20164;-74
2021/09/25 03:27:12;;;;;;;6.00;3.30;;;19.20;82.20;;;;;;5093326;28;20472;-75
2021/09/25 03:29:37;;;;;;;5.65;2.97;;;19.20;82.20;;;;;;5092194;28;20102;-75
2021/09/25 03:32:03;;;;;;;7.13;3.13;;;19.20;82.20;;;;;;5091848;28;20027;-75
2021/09/25 03:34:29;;;;;;;9.73;3.45;;;19.20;82.00;;;;;;5092108;28;20023;-75
2021/09/25 03:36:55;;;;;;;7.93;3.20;;;19.20;82.10;;;;;;5093239;28;20024;-76
2021/09/25 03:39:20;;;;;;;5.60;3.15;;;19.20;82.30;;;;;;5091942;28;20053;-75
2021/09/25 03:41:46;;;;;;;5.95;3.03;;;19.20;82.20;;;;;;5091554;28;20035;-75
2021/09/25 03:44:11;;;;;;;5.50;3.08;;;19.20;82.30;;;;;;5091894;28;20032;-75
2021/09/25 03:46:37;;;;;;;5.93;2.95;;;19.20;82.20;;;;;;5091761;28;20012;-75
2021/09/25 03:49:03;;;;;;;5.63;3.10;;;19.20;82.10;;;;;;5091815;28;20169;-75
2021/09/25 03:51:29;;;;;;;6.07;3.00;;;19.10;82.20;;;;;;5091445;28;20031;-75
2021/09/25 03:53:54;;;;;;;5.47;2.83;;;19.20;82.30;;;;;;5091705;28;20417;-75
2021/09/25 03:56:20;;;;;;;5.65;2.90;;;19.20;82.40;;;;;;5091448;28;20023;-75
2021/09/25 03:58:46;;;;;;;5.95;3.08;;;19.10;82.10;;;;;;5092848;28;20030;-75
2021/09/25 04:01:12;;;;;;;6.68;3.15;;;19.20;82.40;;;;;;5092504;28;20390;-75
2021/09/25 04:03:38;;;;;;;7.10;3.30;;;19.20;82.20;;;;;;5091620;28;20503;-75
2021/09/25 04:06:03;;;;;;;5.10;2.63;;;19.20;82.00;;;;;;5092575;28;20031;-75
2021/09/25 04:08:33;;;;;;;5.65;3.15;;;19.20;82.20;;;;;;5091323;28;20032;-76
2021/09/25 04:10:58;;;;;;;5.53;3.00;;;19.20;82.00;;;;;;5091116;28;20028;-75
2021/09/25 04:13:24;;;;;;;6.38;2.97;;;19.20;82.00;;;;;;5092604;28;20028;-75
2021/09/25 04:15:50;;;;;;;5.20;2.53;;;19.20;81.80;;;;;;5092594;28;20063;-75
2021/09/25 04:18:15;;;;;;;5.65;3.00;;;19.20;81.90;;;;;;5091234;28;20048;-75
2021/09/25 04:20:41;;;;;;;7.07;3.20;;;19.20;81.90;;;;;;5092197;28;20668;-75
2021/09/25 04:23:07;;;;;;;5.60;3.17;;;19.20;81.90;;;;;;5092426;28;20035;-75
2021/09/25 04:25:33;;;;;;;6.32;3.15;;;19.20;81.90;;;;;;5091156;28;20076;-75
2021/09/25 04:28:05;;;;;;;6.20;2.88;;;19.20;82.00;;;;;;5091275;28;20435;-75
2021/09/25 04:30:38;;;;;;;5.65;2.92;;;19.20;81.70;;;;;;5090477;28;20084;-76
2021/09/25 04:33:05;;;;;;;6.55;2.70;;;19.20;81.90;;;;;;5092432;28;20020;-75
2021/09/25 04:35:30;;;;;;;6.07;2.92;;;19.20;81.80;;;;;;5090946;28;20481;-75
2021/09/25 04:37:56;;;;;;;6.38;2.92;;;19.20;81.90;;;;;;5092080;28;20042;-75
2021/09/25 04:40:23;;;;;;;6.05;3.10;;;19.20;81.90;;;;;;5092069;28;20103;-75
2021/09/25 04:42:48;;;;;;;4.78;2.47;;;19.20;81.80;;;;;;5091980;28;20024;-75
2021/09/25 04:45:14;;;;;;;6.75;2.92;;;19.20;81.80;;;;;;5092026;28;20031;-75
2021/09/25 04:47:42;;;;;;;5.38;2.90;;;19.20;81.60;;;;;;5092100;28;20363;-75
2021/09/25 04:50:09;;;;;;;8.80;3.30;;;19.20;81.90;;;;;;5090679;28;20074;-75
2021/09/25 04:52:35;;;;;;;6.07;2.85;;;19.20;82.00;;;;;;5090581;28;20485;-75
2021/09/25 04:55:00;;;;;;;4.75;2.60;;;19.20;82.00;;;;;;5090946;28;20040;-75
2021/09/25 04:57:26;;;;;;;5.95;2.83;;;19.30;82.00;;;;;;5090740;28;20571;-75
2021/09/25 04:59:51;;;;;;;4.32;2.50;;;19.20;81.80;;;;;;5091970;28;20074;-75
2021/09/25 05:02:17;;;;;;;6.85;2.83;;;19.20;81.80;;;;;;5090331;28;20085;-75
2021/09/25 05:04:43;;;;;;;5.88;2.67;;;19.20;81.90;;;;;;5090568;28;20016;-75
2021/09/25 05:07:08;;;;;;;6.00;2.95;;;19.20;81.80;;;;;;5090327;28;20071;-75
2021/09/25 05:09:34;;;;;;;5.82;2.60;;;19.20;81.90;;;;;;5091943;28;20028;-75
2021/09/25 05:11:59;;;;;;;4.72;2.63;;;19.20;81.60;;;;;;5091630;28;20051;-75
2021/09/25 05:14:25;;;;;;;5.70;3.00;;;19.10;81.60;;;;;;5090761;28;20031;-75
2021/09/25 05:16:50;;;;;;;5.47;2.63;;;19.20;81.70;;;;;;5091844;28;20526;-76
2021/09/25 05:19:16;;;;;;;4.82;2.80;;;19.20;81.80;;;;;;5090643;28;20024;-75
2021/09/25 05:21:41;;;;;;;4.72;2.60;;;19.20;81.70;;;;;;5091401;28;20031;-75
2021/09/25 05:24:07;;;;;;;5.25;2.83;;;19.20;81.60;;;;;;5090372;28;20020;-75
2021/09/25 05:26:35;;;;;;;5.38;2.60;;;19.20;81.60;;;;;;5091613;28;20017;-75
2021/09/25 05:29:02;;;;;;;5.97;2.83;;;19.20;81.50;;;;;;5091973;28;20031;-75
2021/09/25 05:31:27;;;;;;;7.28;2.83;;;19.20;81.80;;;;;;5091677;28;20465;-76
2021/09/25 05:33:53;;;;;;;6.40;2.92;;;19.20;81.80;;;;;;5085647;28;20028;-75
2021/09/25 05:36:19;;;;;;;4.93;2.63;;;19.20;82.00;;;;;;5081771;28;20032;-75
2021/09/25 05:38:44;;;;;;;6.78;2.75;;;19.20;82.00;;;;;;5084676;28;20063;-75
2021/09/25 05:41:10;;;;;;;5.97;2.83;;;19.20;82.10;;;;;;5081457;28;20028;-76
2021/09/25 05:43:35;;;;;;;6.53;2.90;;;19.20;82.00;;;;;;5075109;28;20370;-76
2021/09/25 05:46:01;;;;;;;5.20;2.40;;;19.10;82.00;;;;;;5074081;28;20101;-75
2021/09/25 05:48:26;;;;;;;5.75;2.58;;;19.20;82.00;;;;;;5074935;28;20020;-76
2021/09/25 05:50:52;;;;;;;7.10;2.70;;;19.30;81.90;;;;;;5073389;28;20028;-77
2021/09/25 05:53:17;;;;;;;6.50;2.95;;;19.30;81.90;;;;;;5072735;28;20025;-76
2021/09/25 05:55:43;;;;;;;7.20;3.08;;;19.30;81.90;;;;;;5072428;28;20029;-75
2021/09/25 05:58:08;;;;;;;7.72;2.90;;;19.30;81.90;;;;;;5073330;28;20020;-75
2021/09/25 06:00:34;;;;;;;7.70;3.20;;;19.30;81.80;;;;;;5072679;28;20474;-76
2021/09/25 06:03:01;;;;;;;8.38;3.13;;;19.30;81.70;;;;;;5074766;28;20032;-76
2021/09/25 06:05:29;;;;;;;14.25;3.65;;;19.30;81.50;;;;;;5073669;28;20025;-79
2021/09/25 06:07:55;;;;;;;8.65;3.17;;;19.30;82.20;;;;;;5074875;28;20481;-75
2021/09/25 06:10:20;;;;;;;8.40;3.17;;;19.30;82.30;;;;;;5074488;28;20112;-74
2021/09/25 06:12:46;;;;;;;6.90;2.95;;;19.30;82.50;;;;;;5074409;28;20108;-75
2021/09/25 06:15:11;;;;;;;12.18;3.63;;;19.30;82.30;;;;;;5073331;28;20024;-75
2021/09/25 06:17:38;;;;;;;8.02;3.40;;;19.30;82.20;;;;;;5073055;28;20032;-75
2021/09/25 06:20:04;;;;;;;8.05;3.30;;;19.30;82.40;;;;;;5073152;28;20031;-75
2021/09/25 06:22:29;;;;;;;9.90;3.65;;;19.30;82.50;;;;;;5074003;28;20550;-74
2021/09/25 06:24:55;;;;;;;8.80;3.35;;;19.30;82.50;;;;;;5073124;28;20024;-75
2021/09/25 06:27:21;;;;;;;9.23;3.15;;;19.30;82.50;;;;;;5074292;28;20059;-75
2021/09/25 06:29:46;;;;;;;9.25;3.08;;;19.30;82.10;;;;;;5074274;28;20036;-75
2021/09/25 06:32:12;;;;;;;7.68;3.03;;;19.20;82.40;;;;;;5075493;28;20504;-74
2021/09/25 06:34:37;;;;;;;11.15;3.50;;;19.20;82.20;;;;;;5076340;28;20052;-76
2021/09/25 06:37:03;;;;;;;8.20;3.13;;;19.20;82.50;;;;;;5073429;28;20474;-75
2021/09/25 06:39:29;;;;;;;7.93;3.30;;;19.20;82.40;;;;;;5073047;28;20020;-75
2021/09/25 06:41:55;;;;;;;8.05;3.55;;;19.20;82.30;;;;;;5072052;28;20031;-75
2021/09/25 06:44:20;;;;;;;6.40;2.90;;;19.20;82.30;;;;;;5072516;28;20021;-75
2021/09/25 06:46:46;;;;;;;7.93;2.92;;;19.20;82.20;;;;;;5072297;28;20115;-75
2021/09/25 06:49:11;;;;;;;7.00;3.03;;;19.20;82.20;;;;;;5073571;28;20095;-75
2021/09/25 06:51:37;;;;;;;6.65;3.13;;;19.20;82.10;;;;;;5073174;28;20060;-75
2021/09/25 06:54:02;;;;;;;6.22;3.13;;;19.30;82.20;;;;;;5072530;28;20025;-75
2021/09/25 06:56:28;;;;;;;8.25;3.25;;;19.20;82.10;;;;;;5072404;28;20025;-75
2021/09/25 06:58:53;;;;;;;6.20;2.95;;;19.20;82.10;;;;;;5073043;28;20518;-75
2021/09/25 07:01:19;;;;;;;7.05;2.75;;;19.20;82.00;;;;;;5072093;28;20024;-74
2021/09/25 07:03:45;;;;;;;6.70;2.92;;;19.20;82.00;;;;;;5072349;28;20039;-75
2021/09/25 07:06:11;;;;;;;6.95;3.10;;;19.20;81.90;;;;;;5073566;28;20043;-74
2021/09/25 07:08:36;;;;;;;6.60;2.92;;;19.30;82.10;;;;;;5072323;28;20481;-75
2021/09/25 07:11:02;;;;;;;8.32;3.22;;;19.20;82.00;;;;;;5073117;28;20375;-75
2021/09/25 07:13:28;;;;;;;6.63;2.72;;;19.30;82.00;;;;;;5073492;28;20032;-75
2021/09/25 07:15:53;;;;;;;6.60;2.80;;;19.20;81.80;;;;;;5073369;28;20020;-75
2021/09/25 07:18:20;;;;;;;6.10;2.70;;;19.20;81.80;;;;;;5072155;28;20048;-75
2021/09/25 07:20:46;;;;;;;5.50;2.80;;;19.20;81.80;;;;;;5073108;28;20424;-75
2021/09/25 07:23:12;;;;;;;5.70;2.90;;;19.20;81.80;;;;;;5073269;28;20020;-75
2021/09/25 07:25:39;;;;;;;4.80;2.60;;;19.30;81.90;;;;;;5071745;28;20071;-75
2021/09/25 07:28:06;;;;;;;7.32;2.60;;;19.20;81.70;;;;;;5073088;28;20046;-75
2021/09/25 07:30:33;;;;;;;6.32;2.65;;;19.30;81.70;;;;;;5071587;28;20020;-75
2021/09/25 07:33:00;;;;;;;5.00;2.58;;;19.30;81.80;;;;;;5071807;28;20032;-75
2021/09/25 07:35:27;;;;;;;5.28;2.63;;;19.30;81.50;;;;;;5071769;28;20132;-75
2021/09/25 07:37:52;;;;;;;6.50;3.00;;;19.30;81.60;;;;;;5072843;28;20466;-75
2021/09/25 07:40:18;;;;;;;6.25;2.88;;;19.30;81.30;;;;;;5071373;28;20029;-74
2021/09/25 07:42:44;;;;;;;5.28;2.60;;;19.20;81.20;;;;;;5072421;28;20393;-75
2021/09/25 07:45:11;;;;;;;7.10;2.70;;;19.30;81.30;;;;;;5071540;28;20028;-75
2021/09/25 07:47:37;;;;;;;6.32;2.80;;;19.30;81.10;;;;;;5072630;28;20397;-75
2021/09/25 07:50:07;;;;;;;6.68;2.47;;;19.30;81.20;;;;;;5072826;28;20393;-75
2021/09/25 07:52:32;;;;;;;6.38;2.40;;;19.30;81.00;;;;;;5072209;28;20020;-75
2021/09/25 07:54:59;;;;;;;5.63;2.78;;;19.30;80.70;;;;;;5072694;28;20027;-75
2021/09/25 07:57:26;;;;;;;5.38;2.80;;;19.30;80.90;;;;;;5072605;28;20027;-75
2021/09/25 07:59:51;;;;;;;5.32;2.85;;;19.30;80.90;;;;;;5070940;28;20484;-75
2021/09/25 08:02:17;;;;;;;6.50;2.60;;;19.30;80.80;;;;;;5072051;28;20103;-75
2021/09/25 08:04:42;;;;;;;8.23;2.83;;;19.40;81.20;;;;;;5071627;28;20025;-75
2021/09/25 08:07:08;;;;;;;6.47;2.70;;;19.40;80.80;;;;;;5072359;28;20107;-75
2021/09/25 08:09:33;;;;;;;6.88;2.63;;;19.40;80.70;;;;;;5071086;28;20020;-75
2021/09/25 08:11:59;;;;;;;7.05;2.90;;;19.40;80.60;;;;;;5070880;28;20456;-75
2021/09/25 08:14:25;;;;;;;5.82;2.47;;;19.40;80.60;;;;;;5072401;28;20054;-75
2021/09/25 08:16:51;;;;;;;5.70;2.80;;;19.40;80.50;;;;;;5072144;28;20025;-75
2021/09/25 08:19:17;;;;;;;5.93;3.10;;;19.40;80.70;;;;;;5070852;28;20035;-75
2021/09/25 08:21:42;;;;;;;6.25;2.80;;;19.40;80.50;;;;;;5071958;28;20042;-75
2021/09/25 08:24:08;;;;;;;5.85;2.55;;;19.40;80.50;;;;;;5072107;28;20028;-74
2021/09/25 08:26:33;;;;;;;6.07;2.53;;;19.50;80.30;;;;;;5070851;28;20397;-74
2021/09/25 08:28:59;;;;;;;5.90;2.90;;;19.60;80.40;;;;;;5070829;28;20507;-74
2021/09/25 08:31:25;;;;;;;5.45;2.50;;;19.50;80.30;;;;;;5070483;28;20021;-75
2021/09/25 08:33:51;;;;;;;5.65;2.70;;;19.50;80.00;;;;;;5070534;28;20460;-74
2021/09/25 08:36:17;;;;;;;6.00;2.60;;;19.50;80.00;;;;;;5071902;28;20024;-74
2021/09/25 08:38:43;;;;;;;6.13;2.83;;;19.50;79.80;;;;;;5071949;28;20028;-74
2021/09/25 08:41:09;;;;;;;5.20;2.78;;;19.50;80.10;;;;;;5070375;28;20024;-74
2021/09/25 08:43:35;;;;;;;5.05;2.40;;;19.50;80.00;;;;;;5071871;28;20389;-76
2021/09/25 08:46:04;;;;;;;5.30;2.40;;;19.50;80.20;;;;;;5071953;28;20025;-74
2021/09/25 08:48:32;;;;;;;8.07;2.40;;;19.50;80.30;;;;;;5071669;28;20016;-75
2021/09/25 08:50:58;;;;;;;7.32;2.20;;;19.70;79.90;;;;;;5070332;28;20371;-75
2021/09/25 08:53:23;;;;;;;7.57;2.92;;;19.80;79.60;;;;;;5070577;28;20043;-75
2021/09/25 08:55:49;;;;;;;9.27;3.28;;;19.80;79.30;;;;;;5070490;28;20067;-76
2021/09/25 08:58:15;;;;;;;6.70;3.58;;;19.80;79.70;;;;;;5070424;28;20505;-76
2021/09/25 09:00:43;;;;;;;10.23;4.22;;;19.80;79.80;;;;;;5069420;28;20107;-77
2021/09/25 09:03:21;;;;;;;7.70;3.55;;;19.90;79.90;;;;;;5076024;28;20032;-79
2021/09/25 09:05:48;;;;;;;9.43;4.13;;;20.10;79.80;;;;;;5075373;28;20020;-78
2021/09/25 09:10:58;;;;;;;8.98;3.45;;;20.10;79.10;;;;;;5051484;28;20049;-76
2021/09/25 09:13:24;;;;;;;7.65;3.20;;;20.10;79.00;;;;;;5035686;28;20017;-76
2021/09/25 09:15:51;;;;;;;9.57;3.03;;;20.00;79.00;;;;;;5055624;28;20044;-77
2021/09/25 09:18:20;;;;;;;6.68;2.75;;;20.00;78.80;;;;;;5040865;28;20441;-77
2021/09/25 09:21:02;;;;;;;9.07;2.90;;;20.00;78.90;;;;;;5022523;28;20025;-77
2021/09/25 09:23:30;;;;;;;8.30;3.10;;;20.00;78.60;;;;;;5021177;28;20083;-78
2021/09/25 09:25:56;;;;;;;6.05;2.80;;;20.00;78.60;;;;;;5039323;28;20459;-77
2021/09/25 09:28:24;;;;;;;11.23;3.03;;;20.00;78.40;;;;;;5037900;28;20029;-77
2021/09/25 09:30:52;;;;;;;8.57;2.97;;;20.00;79.00;;;;;;5038231;28;20406;-77
2021/09/25 09:33:29;;;;;;;6.82;2.80;;;20.10;78.90;;;;;;5037459;28;20033;-78
2021/09/25 09:36:11;;;;;;;6.80;2.63;;;20.00;78.90;;;;;;5035382;28;20491;-77
2021/09/25 09:38:41;;;;;;;7.07;2.58;;;20.00;78.70;;;;;;5035351;28;20030;-77
2021/09/25 09:41:09;;;;;;;8.70;2.80;;;20.00;78.70;;;;;;5017401;28;20033;-77
2021/09/25 09:43:35;;;;;;;5.47;2.50;;;20.10;78.70;;;;;;5017620;28;20057;-76
2021/09/25 09:46:01;;;;;;;7.28;2.83;;;20.00;78.40;;;;;;5017521;28;20389;-77
2021/09/25 09:48:28;;;;;;;7.05;2.60;;;20.00;78.40;;;;;;5034943;28;20037;-77
2021/09/25 09:50:53;;;;;;;6.65;2.63;;;20.10;78.40;;;;;;5016658;28;20021;-77
2021/09/25 09:53:19;;;;;;;6.47;2.58;;;20.10;78.60;;;;;;5017318;28;20037;-77
2021/09/25 09:55:45;;;;;;;6.00;2.60;;;20.10;78.40;;;;;;5017290;28;20544;-76
2021/09/25 09:58:10;;;;;;;6.38;2.40;;;20.10;78.20;;;;;;5017263;28;20445;-77
2021/09/25 10:00:36;;;;;;;6.30;2.47;;;20.10;78.10;;;;;;5016048;28;20047;-77
2021/09/25 10:03:03;;;;;;;6.97;2.50;;;20.20;77.90;;;;;;5034888;28;20025;-77
2021/09/25 10:05:29;;;;;;;6.82;2.60;;;20.20;77.80;;;;;;5034814;28;20026;-77
2021/09/25 10:07:54;;;;;;;7.32;2.42;;;20.30;77.60;;;;;;5017094;28;20032;-76
2021/09/25 10:10:23;;;;;;;5.35;2.28;;;20.40;77.40;;;;;;5017625;28;20037;-78
2021/09/25 10:12:49;;;;;;;7.60;2.42;;;20.40;77.20;;;;;;5037332;28;20063;-78
2021/09/25 10:15:15;;;;;;;6.32;2.42;;;20.50;77.20;;;;;;5039042;28;20025;-77
2021/09/25 10:17:42;;;;;;;6.25;2.22;;;20.50;77.20;;;;;;5021147;28;20033;-77
2021/09/25 10:20:08;;;;;;;6.65;2.40;;;20.60;77.10;;;;;;5020293;28;20033;-77
2021/09/25 10:22:35;;;;;;;7.57;2.55;;;20.60;76.80;;;;;;5036478;28;20503;-78
2021/09/25 10:25:05;;;;;;;7.78;2.65;;;20.70;76.60;;;;;;5034496;28;20036;-77
2021/09/25 10:27:37;;;;;;;7.97;2.58;;;20.80;76.50;;;;;;5036243;28;20108;-78
2021/09/25 10:30:05;;;;;;;10.75;2.90;;;20.80;76.40;;;;;;5033523;28;20068;-77
2021/09/25 10:32:35;;;;;;;8.55;3.20;;;20.90;76.30;;;;;;5036893;28;20022;-77
2021/09/25 10:35:08;;;;;;;7.93;2.65;;;20.90;75.90;;;;;;5037294;28;20049;-77
2021/09/25 10:37:43;;;;;;;7.03;2.47;;;21.00;75.70;;;;;;5035524;28;20482;-77
2021/09/25 10:40:18;;;;;;;8.52;2.80;;;21.00;75.60;;;;;;5018721;28;20029;-77
2021/09/25 10:42:50;;;;;;;6.78;2.70;;;21.10;75.50;;;;;;5035349;28;20022;-77
2021/09/25 10:45:30;;;;;;;7.13;2.67;;;21.10;75.40;;;;;;5032975;28;20037;-76
2021/09/25 10:48:13;;;;;;;6.20;2.40;;;21.20;75.20;;;;;;5032676;28;20087;-78
2021/09/25 10:50:45;;;;;;;5.35;2.28;;;21.20;75.10;;;;;;5015806;28;20051;-76
2021/09/25 10:53:15;;;;;;;5.25;2.20;;;21.30;74.80;;;;;;5016338;28;20486;-77
2021/09/25 10:55:44;;;;;;;5.80;2.45;;;21.30;74.60;;;;;;5032733;28;20076;-78
2021/09/25 10:58:24;;;;;;;6.53;2.45;;;21.30;74.60;;;;;;5032675;28;20028;-76
2021/09/25 11:01:05;;;;;;;6.53;2.40;;;21.30;74.50;;;;;;5015586;28;20029;-77
2021/09/25 11:03:49;;;;;;;5.75;2.35;;;21.40;74.50;;;;;;5034096;28;20030;-76
2021/09/25 11:06:25;;;;;;;5.05;2.30;;;21.40;74.20;;;;;;5034200;28;20029;-76
2021/09/25 11:08:56;;;;;;;5.88;2.30;;;21.40;74.40;;;;;;5032792;28;20021;-77
2021/09/25 11:11:46;;;;;;;7.40;2.35;;;21.40;74.10;;;;;;5015896;28;20021;-77
2021/09/25 11:14:27;;;;;;;8.05;2.15;;;21.50;74.20;;;;;;5034095;28;20033;-79
2021/09/25 11:17:27;;;;;;;6.38;2.25;;;21.50;74.00;;;;;;5038327;28;20712;-78
2021/09/25 11:20:01;;;;;;;5.72;2.40;;;21.40;73.80;;;;;;5033933;28;20080;-77
2021/09/25 11:22:35;;;;;;;6.88;2.30;;;21.40;74.10;;;;;;5033176;28;20033;-77
2021/09/25 11:25:17;;;;;;;8.50;2.33;;;21.40;74.00;;;;;;5015685;28;20025;-76
2021/09/25 11:27:45;;;;;;;6.43;2.20;;;21.40;74.10;;;;;;5035024;28;20104;-78
2021/09/25 11:30:17;;;;;;;4.78;2.33;;;21.40;74.10;;;;;;5015465;28;20025;-77
2021/09/25 11:32:51;;;;;;;6.35;2.53;;;21.40;74.20;;;;;;5015377;28;20024;-77
2021/09/25 11:35:17;;;;;;;4.93;2.47;;;21.40;74.30;;;;;;5015444;28;20483;-77
2021/09/25 11:37:51;;;;;;;4.85;2.33;;;21.40;74.30;;;;;;5015448;28;20018;-77
2021/09/25 11:40:18;;;;;;;4.72;2.22;;;21.40;74.30;;;;;;5015289;28;20021;-77
2021/09/25 11:42:44;;;;;;;5.03;2.28;;;21.40;74.40;;;;;;5014992;28;20091;-76
2021/09/25 11:45:11;;;;;;;6.35;2.00;;;21.40;74.30;;;;;;5015295;28;20530;-77
2021/09/25 11:47:40;;;;;;;5.57;2.25;;;21.40;74.30;;;;;;5033009;28;20034;-77
2021/09/25 11:50:25;;;;;;;5.20;2.30;;;21.40;74.30;;;;;;5014997;28;20068;-77
2021/09/25 11:53:03;;;;;;;5.60;2.17;;;21.40;74.30;;;;;;5015128;28;20022;-77
2021/09/25 11:55:30;;;;;;;11.10;3.20;;;21.40;74.30;;;;;;5032952;28;20029;-77
2021/09/25 11:57:58;;;;;;;6.15;2.10;;;21.30;74.50;;;;;;5014950;28;20094;-76
2021/09/25 12:00:31;;;;;;;6.93;2.20;;;21.40;74.40;;;;;;5032267;28;20023;-78
2021/09/25 12:02:57;;;;;;;5.32;2.10;;;21.40;74.30;;;;;;5015099;28;20030;-76
2021/09/25 12:05:33;;;;;;;6.45;2.30;;;21.40;74.20;;;;;;5014270;28;20383;-78
2021/09/25 12:08:09;;;;;;;4.72;2.17;;;21.40;74.30;;;;;;5016403;28;20031;-77
2021/09/25 12:10:39;;;;;;;5.45;2.08;;;21.30;74.40;;;;;;5016975;28;20030;-78
2021/09/25 12:13:12;;;;;;;5.80;1.90;;;21.30;74.60;;;;;;5034949;28;20495;-77
2021/09/25 12:15:43;;;;;;;4.28;2.00;;;21.30;74.60;;;;;;5035211;28;20104;-77
2021/09/25 12:18:28;;;;;;;6.55;2.30;;;21.30;74.70;;;;;;5035525;28;20032;-77
2021/09/25 12:21:09;;;;;;;4.78;2.20;;;21.30;74.60;;;;;;5014364;28;20037;-77
2021/09/25 12:23:41;;;;;;;6.93;2.20;;;21.30;75.10;;;;;;5016742;28;20502;-76
2021/09/25 12:26:08;;;;;;;5.38;2.22;;;21.30;74.70;;;;;;5014669;28;20034;-76
2021/09/25 12:28:52;;;;;;;5.10;2.00;;;21.30;74.60;;;;;;5032113;28;20388;-77
2021/09/25 12:31:26;;;;;;;6.68;2.67;;;21.30;74.70;;;;;;5014239;28;20025;-77
2021/09/25 12:34:04;;;;;;;4.38;1.98;;;21.30;74.70;;;;;;5014740;28;20502;-76
2021/09/25 12:36:34;;;;;;;3.95;1.92;;;21.30;74.60;;;;;;5014349;28;20041;-77
2021/09/25 12:39:04;;;;;;;5.28;2.10;;;21.30;74.70;;;;;;5032061;28;20110;-77
2021/09/25 12:41:29;;;;;;;5.13;2.00;;;21.30;74.80;;;;;;5031866;28;20025;-76
2021/09/25 12:43:58;;;;;;;9.13;2.28;;;21.20;74.80;;;;;;5014558;28;20183;-78
2021/09/25 12:46:49;;;;;;;5.10;2.25;;;21.20;74.90;;;;;;5014190;28;20036;-77
2021/09/25 12:49:14;;;;;;;7.07;2.15;;;21.20;75.00;;;;;;5024282;28;20038;-77